Forester — DIUT — position and weather

sailwx.info

Track history (hours):
 
Tides and Currents Weather Stations Pressure Air Temp Water Temp Dewpoint Dewpoint Depression Visibility Wind Speed Wind Dir Waves Ship Positions

Forester

Last reported at 2014-Aug-27 16:33 UTC. Time now 2014-Aug-27 17:10 UTC.
Position N 50°44' E 000°46'.

Length 100 m; draft 6.4 m.

Type: Ship. MMSI: 211233870.

Date/timePositionNaut miles runAvg speedWind from/ knotsBaromVisibWave heightAir tempDewpointWater temp
2014-Aug-27 16:33N 50°44' E 000°46'1211.8
2014-Aug-27 15:34N 50°51' E 001°01'1110.8
2014-Aug-27 14:32N 50°58' E 001°15'9 9.4
2014-Aug-27 13:33N 51°04' E 001°26'9 9.3
2014-Aug-27 12:34N 51°10' E 001°37'1110.5
2014-Aug-27 11:33N 51°17' E 001°50'1210.5
2014-Aug-27 10:25N 51°23' E 002°06'1112.1
2014-Aug-27 09:33N 51°21' E 002°23'1312.9
2014-Aug-27 08:33N 51°22' E 002°43'2423.4
2014-Aug-27 07:32N 51°25' E 003°21'3 3.2
2014-Aug-27 06:33N 51°25' E 003°26'1212.3
2014-Aug-27 05:33N 51°22' E 003°45'1110.6
2014-Aug-27 04:33N 51°24' E 004°02'10 9.7
2014-Aug-27 03:34N 51°20' E 004°16'7 7.1
2014-Aug-27 02:34N 51°14' E 004°23'7 6.7
2014-Aug-27 01:34N 51°08' E 004°19'3 3.0
2014-Aug-27 00:30N 51°05' E 004°21'1 0.1
2014-Aug-26 15:21N 51°05' E 004°22'0 0.0
2014-Aug-26 14:28N 51°05' E 004°22'0 0.0
2014-Aug-26 08:27N 51°05' E 004°22'0 0.0
2014-Aug-25 20:26N 51°05' E 004°22'0 0.0
2014-Aug-25 18:27N 51°05' E 004°22'0 0.0
2014-Aug-25 08:18N 51°05' E 004°22'0 0.0
2014-Aug-25 07:33N 51°05' E 004°22'0 0.0
2014-Aug-25 06:33N 51°05' E 004°22'0 0.0
2014-Aug-25 05:32N 51°05' E 004°22'0 0.0
2014-Aug-25 04:33N 51°05' E 004°22'0 0.0
2014-Aug-25 03:33N 51°05' E 004°22'0 0.0
2014-Aug-24 19:15N 51°05' E 004°22'0 0.0
2014-Aug-24 07:29N 51°05' E 004°22'0 0.0
2014-Aug-24 06:33N 51°05' E 004°22'0 0.0
2014-Aug-24 05:31N 51°05' E 004°22'0 0.0
2014-Aug-24 04:33N 51°05' E 004°22'0 0.0
2014-Aug-24 03:34N 51°05' E 004°22'0 0.0
2014-Aug-24 02:21N 51°05' E 004°22'0 0.0
2014-Aug-24 01:33N 51°05' E 004°22'0 0.0
2014-Aug-24 00:31N 51°05' E 004°22'0 0.0
2014-Aug-23 23:30N 51°05' E 004°22'0 0.0
2014-Aug-23 20:33N 51°05' E 004°22'0 0.0
2014-Aug-23 19:33N 51°05' E 004°22'0 0.0
2014-Aug-23 03:27N 51°05' E 004°22'3 3.8
2014-Aug-23 02:33N 51°07' E 004°18'4 3.6
2014-Aug-23 01:34N 51°10' E 004°20'5 4.7
2014-Aug-23 00:34N 51°15' E 004°19'1010.0
2014-Aug-22 23:34N 51°24' E 004°11'9 9.1
2014-Aug-22 22:34N 51°23' E 003°57'1212.4
2014-Aug-22 21:33N 51°25' E 003°37'1211.7
2014-Aug-22 20:33N 51°34' E 003°24'1110.7
2014-Aug-22 19:32N 51°42' E 003°14'1211.0
2014-Aug-22 18:28N 51°54' E 003°17'10510.6
2014-Aug-22 08:30N 53°27' E 004°38'9 9.3
2014-Aug-22 07:33N 53°31' E 004°52'9 9.1
2014-Aug-22 06:33N 53°34' E 005°06'9 8.8
2014-Aug-22 05:33N 53°37' E 005°20'8 8.4
2014-Aug-22 04:33N 53°39' E 005°34'8 8.5
2014-Aug-22 03:33N 53°42' E 005°47'6310.0
2014-Aug-21 21:18N 53°58' E 007°30'7 9.1
2014-Aug-21 20:33N 53°58' E 007°41'9 9.4
2014-Aug-21 19:33N 53°52' E 007°54'9 9.4
2014-Aug-21 18:33N 53°48' E 008°08'9 9.0
2014-Aug-21 17:33N 53°42' E 008°20'9 9.5
2014-Aug-21 16:33N 53°36' E 008°31'10 9.5
2014-Aug-21 15:33N 53°26' E 008°30'6 5.4
2014-Aug-21 14:29N 53°20' E 008°30'0 0.0
2014-Aug-21 12:29N 53°20' E 008°30'0 0.0
2014-Aug-21 11:29N 53°20' E 008°30'0 0.0
2014-Aug-21 10:32N 53°20' E 008°30'0 0.0
2014-Aug-21 09:32N 53°20' E 008°30'0 0.0
2014-Aug-21 08:32N 53°20' E 008°30'0 0.0
2014-Aug-21 07:26N 53°20' E 008°30'0 0.0
2014-Aug-21 06:23N 53°20' E 008°30'0 0.0
2014-Aug-21 05:32N 53°20' E 008°30'0 0.0
2014-Aug-21 04:32N 53°20' E 008°30'0 0.0
2014-Aug-21 03:32N 53°20' E 008°30'0 0.0
2014-Aug-21 02:32N 53°20' E 008°30'0 0.0
2014-Aug-21 01:32N 53°20' E 008°30'0 0.0
2014-Aug-21 00:32N 53°20' E 008°30'0 0.0
2014-Aug-20 23:32N 53°20' E 008°30'0 0.0
2014-Aug-20 22:31N 53°20' E 008°30'0 0.0
2014-Aug-20 21:31N 53°20' E 008°30'0 0.0
2014-Aug-20 20:31N 53°20' E 008°30'0 0.0
2014-Aug-20 19:31N 53°20' E 008°30'0 0.0
2014-Aug-20 18:31N 53°20' E 008°30'0 0.0
2014-Aug-20 17:31N 53°20' E 008°30'0 0.0
2014-Aug-20 16:28N 53°20' E 008°30'0 0.0
2014-Aug-20 15:28N 53°20' E 008°30'0 0.0
2014-Aug-20 14:31N 53°20' E 008°30'0 0.0
2014-Aug-20 13:31N 53°20' E 008°30'0 0.0
2014-Aug-20 12:31N 53°20' E 008°30'0 0.0
2014-Aug-20 11:31N 53°20' E 008°30'0 0.0
2014-Aug-20 10:19N 53°20' E 008°30'0 0.0
2014-Aug-20 09:31N 53°20' E 008°30'0 0.0
2014-Aug-20 08:31N 53°20' E 008°30'0 0.0
2014-Aug-20 07:31N 53°20' E 008°30'0 0.0
2014-Aug-20 06:31N 53°20' E 008°30'0 0.0
2014-Aug-20 05:28N 53°20' E 008°30'0 0.0
2014-Aug-20 04:28N 53°20' E 008°30'0 0.0
2014-Aug-20 03:31N 53°20' E 008°30'0 0.0
2014-Aug-20 02:28N 53°20' E 008°30'0 0.0
2014-Aug-20 01:28N 53°20' E 008°30'0 0.0
2014-Aug-20 00:31N 53°20' E 008°30'0 0.0
2014-Aug-19 23:31N 53°20' E 008°30'0 0.0
2014-Aug-19 22:28N 53°20' E 008°30'0 0.0
2014-Aug-19 21:31N 53°20' E 008°30'0 0.0
2014-Aug-19 20:31N 53°20' E 008°30'0 0.0
2014-Aug-19 19:33N 53°20' E 008°30'1 0.5
2014-Aug-19 18:33N 53°21' E 008°30'6 6.3
2014-Aug-19 17:34N 53°27' E 008°29'7 7.0
2014-Aug-19 16:33N 53°34' E 008°33'1313.0
2014-Aug-19 15:33N 53°43' E 008°17'1212.2
2014-Aug-19 14:33N 53°51' E 008°01'8 6.1
2014-Aug-19 13:13N 53°59' E 008°03'4 6.8
2014-Aug-19 12:34N 54°03' E 008°06'3 2.9
2014-Aug-19 11:34N 54°05' E 008°10'0 0.0
2014-Aug-19 10:33N 54°05' E 008°10'0 0.0
2014-Aug-19 09:33N 54°05' E 008°10'0 0.0
2014-Aug-19 08:34N 54°05' E 008°10'0 0.0
2014-Aug-19 07:34N 54°05' E 008°10'0 0.1
2014-Aug-19 06:34N 54°05' E 008°10'0 0.0
2014-Aug-19 05:33N 54°05' E 008°10'0 0.1
2014-Aug-19 04:33N 54°05' E 008°10'0 0.0
2014-Aug-19 03:33N 54°05' E 008°10'0 0.0
2014-Aug-19 02:33N 54°05' E 008°10'0 0.0
2014-Aug-19 01:33N 54°05' E 008°10'0 0.0
2014-Aug-19 00:34N 54°05' E 008°10'0 0.0
2014-Aug-18 23:33N 54°05' E 008°10'0 0.0
2014-Aug-18 22:34N 54°05' E 008°10'0 0.0
2014-Aug-18 21:33N 54°05' E 008°10'0 0.0
2014-Aug-18 20:33N 54°05' E 008°10'0 0.0
2014-Aug-18 19:33N 54°05' E 008°10'0 0.0
2014-Aug-18 18:33N 54°05' E 008°10'0 0.0
2014-Aug-18 17:34N 54°05' E 008°10'0 0.0
2014-Aug-18 16:34N 54°05' E 008°10'0 0.1
2014-Aug-18 15:34N 54°05' E 008°10'0 0.0
2014-Aug-18 14:34N 54°05' E 008°10'0 0.0
2014-Aug-18 13:33N 54°05' E 008°10'0 0.1
2014-Aug-18 12:33N 54°05' E 008°10'2 1.5
2014-Aug-18 11:33N 54°05' E 008°07'3 3.4
2014-Aug-18 10:33N 54°05' E 008°01'4 3.7
2014-Aug-18 09:33N 54°05' E 007°55'1 1.1
2014-Aug-18 08:33N 54°05' E 007°53'2 2.0
2014-Aug-18 07:33N 54°05' E 007°56'2 1.9
2014-Aug-18 06:33N 54°05' E 007°59'2 1.5
2014-Aug-18 05:33N 54°05' E 008°02'1 1.3
2014-Aug-18 04:33N 54°05' E 008°04'1 1.1
2014-Aug-18 03:34N 54°05' E 008°06'1 1.2
2014-Aug-18 02:33N 54°05' E 008°08'2 1.6
2014-Aug-18 01:20N 54°05' E 008°11'1 0.7
2014-Aug-18 00:26N 54°05' E 008°10'0 0.0
2014-Aug-17 18:29N 54°05' E 008°10'0 0.0
2014-Aug-17 17:23N 54°05' E 008°10'  
Track history (hours):
 
Tides and Currents Weather Stations Pressure Air Temp Water Temp Dewpoint Dewpoint Depression Visibility Wind Speed Wind Dir Waves Ship Positions

Forester

Last reported at 2014-Aug-27 16:33 UTC. Time now 2014-Aug-27 17:10 UTC.
Position N 50°44' E 000°46'.

Length 100 m; draft 6.4 m.

Type: Ship. MMSI: 211233870.

Date/timePositionNaut miles runAvg speedWind from/ knotsBaromVisibWave heightAir tempDewpointWater temp
2014-Aug-27 16:33N 50°44' E 000°46'1211.8
2014-Aug-27 15:34N 50°51' E 001°01'1110.8
2014-Aug-27 14:32N 50°58' E 001°15'9 9.4
2014-Aug-27 13:33N 51°04' E 001°26'9 9.3
2014-Aug-27 12:34N 51°10' E 001°37'1110.5
2014-Aug-27 11:33N 51°17' E 001°50'1210.5
2014-Aug-27 10:25N 51°23' E 002°06'1112.1
2014-Aug-27 09:33N 51°21' E 002°23'1312.9
2014-Aug-27 08:33N 51°22' E 002°43'2423.4
2014-Aug-27 07:32N 51°25' E 003°21'3 3.2
2014-Aug-27 06:33N 51°25' E 003°26'1212.3
2014-Aug-27 05:33N 51°22' E 003°45'1110.6
2014-Aug-27 04:33N 51°24' E 004°02'10 9.7
2014-Aug-27 03:34N 51°20' E 004°16'7 7.1
2014-Aug-27 02:34N 51°14' E 004°23'7 6.7
2014-Aug-27 01:34N 51°08' E 004°19'3 3.0
2014-Aug-27 00:30N 51°05' E 004°21'1 0.1
2014-Aug-26 15:21N 51°05' E 004°22'0 0.0
2014-Aug-26 14:28N 51°05' E 004°22'0 0.0
2014-Aug-26 08:27N 51°05' E 004°22'0 0.0
2014-Aug-25 20:26N 51°05' E 004°22'0 0.0
2014-Aug-25 18:27N 51°05' E 004°22'0 0.0
2014-Aug-25 08:18N 51°05' E 004°22'0 0.0
2014-Aug-25 07:33N 51°05' E 004°22'0 0.0
2014-Aug-25 06:33N 51°05' E 004°22'0 0.0
2014-Aug-25 05:32N 51°05' E 004°22'0 0.0
2014-Aug-25 04:33N 51°05' E 004°22'0 0.0
2014-Aug-25 03:33N 51°05' E 004°22'0 0.0
2014-Aug-24 19:15N 51°05' E 004°22'0 0.0
2014-Aug-24 07:29N 51°05' E 004°22'0 0.0
2014-Aug-24 06:33N 51°05' E 004°22'0 0.0
2014-Aug-24 05:31N 51°05' E 004°22'0 0.0
2014-Aug-24 04:33N 51°05' E 004°22'0 0.0
2014-Aug-24 03:34N 51°05' E 004°22'0 0.0
2014-Aug-24 02:21N 51°05' E 004°22'0 0.0
2014-Aug-24 01:33N 51°05' E 004°22'0 0.0
2014-Aug-24 00:31N 51°05' E 004°22'0 0.0
2014-Aug-23 23:30N 51°05' E 004°22'0 0.0
2014-Aug-23 20:33N 51°05' E 004°22'0 0.0
2014-Aug-23 19:33N 51°05' E 004°22'0 0.0
2014-Aug-23 03:27N 51°05' E 004°22'3 3.8
2014-Aug-23 02:33N 51°07' E 004°18'4 3.6
2014-Aug-23 01:34N 51°10' E 004°20'5 4.7
2014-Aug-23 00:34N 51°15' E 004°19'1010.0
2014-Aug-22 23:34N 51°24' E 004°11'9 9.1
2014-Aug-22 22:34N 51°23' E 003°57'1212.4
2014-Aug-22 21:33N 51°25' E 003°37'1211.7
2014-Aug-22 20:33N 51°34' E 003°24'1110.7
2014-Aug-22 19:32N 51°42' E 003°14'1211.0
2014-Aug-22 18:28N 51°54' E 003°17'10510.6
2014-Aug-22 08:30N 53°27' E 004°38'9 9.3
2014-Aug-22 07:33N 53°31' E 004°52'9 9.1
2014-Aug-22 06:33N 53°34' E 005°06'9 8.8
2014-Aug-22 05:33N 53°37' E 005°20'8 8.4
2014-Aug-22 04:33N 53°39' E 005°34'8 8.5
2014-Aug-22 03:33N 53°42' E 005°47'6310.0
2014-Aug-21 21:18N 53°58' E 007°30'7 9.1
2014-Aug-21 20:33N 53°58' E 007°41'9 9.4
2014-Aug-21 19:33N 53°52' E 007°54'9 9.4
2014-Aug-21 18:33N 53°48' E 008°08'9 9.0
2014-Aug-21 17:33N 53°42' E 008°20'9 9.5
2014-Aug-21 16:33N 53°36' E 008°31'10 9.5
2014-Aug-21 15:33N 53°26' E 008°30'6 5.4
2014-Aug-21 14:29N 53°20' E 008°30'0 0.0
2014-Aug-21 12:29N 53°20' E 008°30'0 0.0
2014-Aug-21 11:29N 53°20' E 008°30'0 0.0
2014-Aug-21 10:32N 53°20' E 008°30'0 0.0
2014-Aug-21 09:32N 53°20' E 008°30'0 0.0
2014-Aug-21 08:32N 53°20' E 008°30'0 0.0
2014-Aug-21 07:26N 53°20' E 008°30'0 0.0
2014-Aug-21 06:23N 53°20' E 008°30'0 0.0
2014-Aug-21 05:32N 53°20' E 008°30'0 0.0
2014-Aug-21 04:32N 53°20' E 008°30'0 0.0
2014-Aug-21 03:32N 53°20' E 008°30'0 0.0
2014-Aug-21 02:32N 53°20' E 008°30'0 0.0
2014-Aug-21 01:32N 53°20' E 008°30'0 0.0
2014-Aug-21 00:32N 53°20' E 008°30'0 0.0
2014-Aug-20 23:32N 53°20' E 008°30'0 0.0
2014-Aug-20 22:31N 53°20' E 008°30'0 0.0
2014-Aug-20 21:31N 53°20' E 008°30'0 0.0
2014-Aug-20 20:31N 53°20' E 008°30'0 0.0
2014-Aug-20 19:31N 53°20' E 008°30'0 0.0
2014-Aug-20 18:31N 53°20' E 008°30'0 0.0
2014-Aug-20 17:31N 53°20' E 008°30'0 0.0
2014-Aug-20 16:28N 53°20' E 008°30'0 0.0
2014-Aug-20 15:28N 53°20' E 008°30'0 0.0
2014-Aug-20 14:31N 53°20' E 008°30'0 0.0
2014-Aug-20 13:31N 53°20' E 008°30'0 0.0
2014-Aug-20 12:31N 53°20' E 008°30'0 0.0
2014-Aug-20 11:31N 53°20' E 008°30'0 0.0
2014-Aug-20 10:19N 53°20' E 008°30'0 0.0
2014-Aug-20 09:31N 53°20' E 008°30'0 0.0
2014-Aug-20 08:31N 53°20' E 008°30'0 0.0
2014-Aug-20 07:31N 53°20' E 008°30'0 0.0
2014-Aug-20 06:31N 53°20' E 008°30'0 0.0
2014-Aug-20 05:28N 53°20' E 008°30'0 0.0
2014-Aug-20 04:28N 53°20' E 008°30'0 0.0
2014-Aug-20 03:31N 53°20' E 008°30'0 0.0
2014-Aug-20 02:28N 53°20' E 008°30'0 0.0
2014-Aug-20 01:28N 53°20' E 008°30'0 0.0
2014-Aug-20 00:31N 53°20' E 008°30'0 0.0
2014-Aug-19 23:31N 53°20' E 008°30'0 0.0
2014-Aug-19 22:28N 53°20' E 008°30'0 0.0
2014-Aug-19 21:31N 53°20' E 008°30'0 0.0
2014-Aug-19 20:31N 53°20' E 008°30'0 0.0
2014-Aug-19 19:33N 53°20' E 008°30'1 0.5
2014-Aug-19 18:33N 53°21' E 008°30'6 6.3
2014-Aug-19 17:34N 53°27' E 008°29'7 7.0
2014-Aug-19 16:33N 53°34' E 008°33'1313.0
2014-Aug-19 15:33N 53°43' E 008°17'1212.2
2014-Aug-19 14:33N 53°51' E 008°01'8 6.1
2014-Aug-19 13:13N 53°59' E 008°03'4 6.8
2014-Aug-19 12:34N 54°03' E 008°06'3 2.9
2014-Aug-19 11:34N 54°05' E 008°10'0 0.0
2014-Aug-19 10:33N 54°05' E 008°10'0 0.0
2014-Aug-19 09:33N 54°05' E 008°10'0 0.0
2014-Aug-19 08:34N 54°05' E 008°10'0 0.0
2014-Aug-19 07:34N 54°05' E 008°10'0 0.1
2014-Aug-19 06:34N 54°05' E 008°10'0 0.0
2014-Aug-19 05:33N 54°05' E 008°10'0 0.1
2014-Aug-19 04:33N 54°05' E 008°10'0 0.0
2014-Aug-19 03:33N 54°05' E 008°10'0 0.0
2014-Aug-19 02:33N 54°05' E 008°10'0 0.0
2014-Aug-19 01:33N 54°05' E 008°10'0 0.0
2014-Aug-19 00:34N 54°05' E 008°10'0 0.0
2014-Aug-18 23:33N 54°05' E 008°10'0 0.0
2014-Aug-18 22:34N 54°05' E 008°10'0 0.0
2014-Aug-18 21:33N 54°05' E 008°10'0 0.0
2014-Aug-18 20:33N 54°05' E 008°10'0 0.0
2014-Aug-18 19:33N 54°05' E 008°10'0 0.0
2014-Aug-18 18:33N 54°05' E 008°10'0 0.0
2014-Aug-18 17:34N 54°05' E 008°10'0 0.0
2014-Aug-18 16:34N 54°05' E 008°10'0 0.1
2014-Aug-18 15:34N 54°05' E 008°10'0 0.0
2014-Aug-18 14:34N 54°05' E 008°10'0 0.0
2014-Aug-18 13:33N 54°05' E 008°10'0 0.1
2014-Aug-18 12:33N 54°05' E 008°10'2 1.5
2014-Aug-18 11:33N 54°05' E 008°07'3 3.4
2014-Aug-18 10:33N 54°05' E 008°01'4 3.7
2014-Aug-18 09:33N 54°05' E 007°55'1 1.1
2014-Aug-18 08:33N 54°05' E 007°53'2 2.0
2014-Aug-18 07:33N 54°05' E 007°56'2 1.9
2014-Aug-18 06:33N 54°05' E 007°59'2 1.5
2014-Aug-18 05:33N 54°05' E 008°02'1 1.3
2014-Aug-18 04:33N 54°05' E 008°04'1 1.1
2014-Aug-18 03:34N 54°05' E 008°06'1 1.2
2014-Aug-18 02:33N 54°05' E 008°08'2 1.6
2014-Aug-18 01:20N 54°05' E 008°11'1 0.7
2014-Aug-18 00:26N 54°05' E 008°10'0 0.0
2014-Aug-17 18:29N 54°05' E 008°10'0 0.0
2014-Aug-17 17:23N 54°05' E 008°10'  

Dump ship's entire track history